KCKM/CKM METAR and TAF weather

Enter ICAO airport designator
Station Type Date Time Source
KCKM METAR 2021/01/17 19:35 UTC NOAA

KCKM 171935Z AUTO 29012KT 10SM 11/M01 A2994 RMK A01


Station Type Date Time Source
KCKM Decoded METAR 2021/01/17 19:35 UTC NOAA

Station name not available
Jan 17, 2021 - 02:35 PM EST / 2021.01.17 1935 UTC
Wind: from the WNW (290 degrees) at 14 MPH (12 KT):0
Visibility: 10 mile(s):0
Temperature: 51 F (11 C)
Dew Point: 30 F (-1 C)
Relative Humidity: 43%
Pressure (altimeter): 29.94 in. Hg (1013 hPa)
ob: KCKM 171935Z AUTO 29012KT 10SM 11/M01 A2994 RMK A01
cycle: 19

Station Type Date Time Source
KCKM TAF UTC NOAA

Error!

Example: see airport list